THY179C LTFM-LJLJ
Flight info
| Callsign | THY179C |
|---|---|
| Flight time | N/A |
| Altitude | 36000 |
| Route | VADEN1D/35L VADEN Y520 OSTEX DCT BAKLO DCT XANEX DCT UTEKA DCT SMI DCT VASLE VASLE1R |
| Aircraft | B738/M-SDE2E3FGHIRWXY/LB1 |
Departure
| Time | 2026-05-01 12:34 |
|---|---|
| Airport | İstanbul Airport (LTFM) |
Arrival
| Time | N/A |
|---|---|
| Airport | Ljubljana Jože Pučnik Airport (LJLJ) |
| Time | Latitude | Longitude | Altitude | Speed | Heading |
|---|---|---|---|---|---|
| 2026-05-01 11:46 | 41.26067 | 28.73602 | 328 ft | 0 kts | 107° |
| 2026-05-01 11:53 | 41.25986 | 28.73574 | 333 ft | 0 kts | 107° |
| 2026-05-01 12:19 | 41.25987 | 28.73569 | 333 ft | 2 kts | 106° |
| 2026-05-01 12:19 | 41.25991 | 28.73545 | 332 ft | 3 kts | 95° |
| 2026-05-01 12:19 | 41.25992 | 28.73518 | 330 ft | 3 kts | 88° |
| 2026-05-01 12:20 | 41.25992 | 28.73492 | 328 ft | 3 kts | 105° |
| 2026-05-01 12:20 | 41.25997 | 28.73468 | 328 ft | 3 kts | 80° |
| 2026-05-01 12:20 | 41.25990 | 28.73450 | 329 ft | 3 kts | 27° |
| 2026-05-01 12:20 | 41.25980 | 28.73444 | 331 ft | 2 kts | 17° |
| 2026-05-01 12:21 | 41.25965 | 28.73438 | 328 ft | 1 kts | 17° |
| 2026-05-01 12:21 | 41.25964 | 28.73437 | 332 ft | 0 kts | 17° |
| 2026-05-01 12:28 | 41.26004 | 28.73454 | 331 ft | 6 kts | 17° |
| 2026-05-01 12:28 | 41.26043 | 28.73469 | 331 ft | 6 kts | 17° |
| 2026-05-01 12:28 | 41.26122 | 28.73502 | 331 ft | 7 kts | 18° |
| 2026-05-01 12:29 | 41.26176 | 28.73516 | 333 ft | 8 kts | 359° |
| 2026-05-01 12:29 | 41.26219 | 28.73476 | 332 ft | 8 kts | 287° |
| 2026-05-01 12:29 | 41.26219 | 28.73332 | 333 ft | 8 kts | 269° |
| 2026-05-01 12:30 | 41.26218 | 28.73197 | 332 ft | 7 kts | 269° |
| 2026-05-01 12:30 | 41.26217 | 28.73124 | 330 ft | 10 kts | 268° |
| 2026-05-01 12:30 | 41.26215 | 28.73012 | 333 ft | 14 kts | 268° |
| 2026-05-01 12:31 | 41.26214 | 28.72966 | 333 ft | 0 kts | 269° |
| 2026-05-01 12:31 | 41.26214 | 28.72957 | 333 ft | 3 kts | 269° |
| 2026-05-01 12:31 | 41.26214 | 28.72905 | 333 ft | 8 kts | 270° |
| 2026-05-01 12:32 | 41.26213 | 28.72801 | 333 ft | 13 kts | 269° |
| 2026-05-01 12:32 | 41.26216 | 28.72558 | 333 ft | 13 kts | 287° |
| 2026-05-01 12:32 | 41.26288 | 28.72519 | 333 ft | 12 kts | 9° |
| 2026-05-01 12:33 | 41.26374 | 28.72520 | 331 ft | 13 kts | 5° |
| 2026-05-01 12:33 | 41.26576 | 28.72517 | 330 ft | 60 kts | 360° |
| 2026-05-01 12:33 | 41.27224 | 28.72504 | 332 ft | 123 kts | 358° |
| 2026-05-01 12:33 | 41.28252 | 28.72462 | 454 ft | 164 kts | 358° |
| 2026-05-01 12:34 | 41.29403 | 28.72313 | 1236 ft | 166 kts | 358° |
| 2026-05-01 12:34 | 41.30535 | 28.72192 | 2160 ft | 161 kts | 358° |
| 2026-05-01 12:34 | 41.31717 | 28.72072 | 2570 ft | 183 kts | 0° |
| 2026-05-01 12:34 | 41.33047 | 28.72139 | 2815 ft | 201 kts | 5° |
| 2026-05-01 12:35 | 41.34477 | 28.72256 | 3225 ft | 210 kts | 5° |
| 2026-05-01 12:35 | 41.35953 | 28.72335 | 3722 ft | 213 kts | 5° |
| 2026-05-01 12:35 | 41.37440 | 28.72145 | 4245 ft | 223 kts | 342° |
| 2026-05-01 12:35 | 41.38792 | 28.70968 | 4572 ft | 246 kts | 321° |
| 2026-05-01 12:36 | 41.39865 | 28.69077 | 5002 ft | 265 kts | 306° |
| 2026-05-01 12:36 | 41.40821 | 28.66946 | 5776 ft | 268 kts | 305° |
| 2026-05-01 12:36 | 41.41756 | 28.64801 | 6621 ft | 269 kts | 304° |
| 2026-05-01 12:36 | 41.42383 | 28.63369 | 7071 ft | 272 kts | 303° |
| 2026-05-01 12:37 | 41.43341 | 28.61188 | 7809 ft | 273 kts | 302° |
| 2026-05-01 12:37 | 41.44307 | 28.59002 | 8559 ft | 275 kts | 302° |
| 2026-05-01 12:37 | 41.45281 | 28.56814 | 9392 ft | 273 kts | 300° |
| 2026-05-01 12:37 | 41.46263 | 28.54616 | 10068 ft | 278 kts | 300° |
| 2026-05-01 12:38 | 41.47277 | 28.52356 | 10436 ft | 294 kts | 300° |
| 2026-05-01 12:38 | 41.48366 | 28.49938 | 10611 ft | 314 kts | 301° |
| 2026-05-01 12:38 | 41.49521 | 28.47383 | 10964 ft | 326 kts | 300° |
| 2026-05-01 12:38 | 41.50697 | 28.44784 | 11675 ft | 328 kts | 300° |
| 2026-05-01 12:39 | 41.51881 | 28.42152 | 12244 ft | 335 kts | 300° |
| 2026-05-01 12:39 | 41.53089 | 28.39465 | 12878 ft | 340 kts | 300° |
| 2026-05-01 12:39 | 41.54303 | 28.36767 | 13577 ft | 343 kts | 300° |
| 2026-05-01 12:39 | 41.55530 | 28.34030 | 14339 ft | 343 kts | 300° |
| 2026-05-01 12:40 | 41.56754 | 28.31288 | 15041 ft | 345 kts | 299° |
| 2026-05-01 12:40 | 41.57983 | 28.28524 | 15784 ft | 346 kts | 298° |
| 2026-05-01 12:40 | 41.59123 | 28.25665 | 16364 ft | 350 kts | 294° |
| 2026-05-01 12:40 | 41.60199 | 28.22759 | 17169 ft | 350 kts | 294° |
| 2026-05-01 12:41 | 41.61275 | 28.19822 | 17770 ft | 356 kts | 294° |
| 2026-05-01 12:41 | 41.62378 | 28.16843 | 18407 ft | 359 kts | 294° |
| 2026-05-01 12:41 | 41.63499 | 28.13860 | 19058 ft | 360 kts | 294° |
| 2026-05-01 12:41 | 41.64621 | 28.10882 | 19540 ft | 364 kts | 294° |
| 2026-05-01 12:42 | 41.65713 | 28.07988 | 20217 ft | 363 kts | 294° |
| 2026-05-01 12:42 | 41.66852 | 28.04951 | 20729 ft | 367 kts | 294° |
| 2026-05-01 12:42 | 41.68042 | 28.01885 | 21105 ft | 375 kts | 297° |
| 2026-05-01 12:42 | 41.69407 | 27.98895 | 21661 ft | 378 kts | 300° |
| 2026-05-01 12:43 | 41.70842 | 27.95965 | 22327 ft | 378 kts | 300° |
| 2026-05-01 12:43 | 41.72305 | 27.93017 | 22774 ft | 382 kts | 300° |
| 2026-05-01 12:43 | 41.73783 | 27.90033 | 23194 ft | 387 kts | 300° |
| 2026-05-01 12:43 | 41.75270 | 27.87010 | 23694 ft | 390 kts | 300° |
| 2026-05-01 12:44 | 41.76757 | 27.83964 | 24137 ft | 391 kts | 300° |
| 2026-05-01 12:44 | 41.78242 | 27.80902 | 24222 ft | 392 kts | 300° |
| 2026-05-01 12:44 | 41.81208 | 27.74754 | 24231 ft | 393 kts | 300° |
| 2026-05-01 12:45 | 41.84173 | 27.68588 | 24247 ft | 393 kts | 300° |
| 2026-05-01 12:45 | 41.85649 | 27.65513 | 24243 ft | 392 kts | 300° |
| 2026-05-01 12:45 | 41.87128 | 27.62428 | 24294 ft | 396 kts | 300° |
| 2026-05-01 12:46 | 41.88617 | 27.59320 | 24790 ft | 394 kts | 300° |
| 2026-05-01 12:46 | 41.90099 | 27.56220 | 25250 ft | 395 kts | 300° |
| 2026-05-01 12:46 | 41.91580 | 27.53120 | 25731 ft | 395 kts | 300° |
| 2026-05-01 12:46 | 41.93066 | 27.50004 | 26078 ft | 398 kts | 299° |
| 2026-05-01 12:47 | 41.94565 | 27.46859 | 26411 ft | 401 kts | 300° |
| 2026-05-01 12:47 | 41.96083 | 27.43671 | 26638 ft | 408 kts | 300° |
| 2026-05-01 12:47 | 41.97618 | 27.40452 | 26971 ft | 411 kts | 300° |
| 2026-05-01 12:47 | 41.99161 | 27.37215 | 27382 ft | 412 kts | 300° |
| 2026-05-01 12:48 | 42.00711 | 27.33958 | 27743 ft | 414 kts | 300° |
| 2026-05-01 12:48 | 42.02269 | 27.30689 | 28095 ft | 416 kts | 300° |
| 2026-05-01 12:48 | 42.03830 | 27.27405 | 28444 ft | 418 kts | 300° |
| 2026-05-01 12:48 | 42.05396 | 27.24095 | 28732 ft | 421 kts | 299° |
| 2026-05-01 12:49 | 42.06957 | 27.20744 | 29076 ft | 423 kts | 297° |
| 2026-05-01 12:49 | 42.08318 | 27.17236 | 29371 ft | 424 kts | 292° |
| 2026-05-01 12:49 | 42.09555 | 27.13619 | 29645 ft | 427 kts | 291° |
| 2026-05-01 12:49 | 42.10785 | 27.09971 | 29979 ft | 428 kts | 292° |
| 2026-05-01 12:50 | 42.12043 | 27.06348 | 30417 ft | 426 kts | 292° |
| 2026-05-01 12:50 | 42.13315 | 27.02759 | 30813 ft | 424 kts | 292° |
| 2026-05-01 12:50 | 42.14600 | 26.99184 | 31145 ft | 424 kts | 295° |
| 2026-05-01 12:50 | 42.16175 | 26.95816 | 31395 ft | 427 kts | 304° |
| 2026-05-01 12:51 | 42.17662 | 26.93400 | 31677 ft | 428 kts | 311° |
| 2026-05-01 12:51 | 42.19831 | 26.90655 | 32042 ft | 427 kts | 314° |
| 2026-05-01 12:51 | 42.24300 | 26.85328 | 32539 ft | 430 kts | 315° |
| 2026-05-01 12:52 | 42.26546 | 26.82661 | 32835 ft | 430 kts | 315° |
| 2026-05-01 12:52 | 42.31007 | 26.77330 | 33497 ft | 427 kts | 314° |
| 2026-05-01 12:52 | 42.33227 | 26.74660 | 33774 ft | 428 kts | 314° |
| 2026-05-01 12:53 | 42.37672 | 26.69294 | 34266 ft | 429 kts | 315° |
| 2026-05-01 12:53 | 42.39896 | 26.66607 | 34497 ft | 429 kts | 314° |
| 2026-05-01 12:53 | 42.42121 | 26.63918 | 34731 ft | 428 kts | 314° |
| 2026-05-01 12:54 | 42.44339 | 26.61238 | 34942 ft | 428 kts | 314° |
| 2026-05-01 12:54 | 42.48785 | 26.55865 | 35374 ft | 428 kts | 314° |
| 2026-05-01 12:54 | 42.51001 | 26.53169 | 35583 ft | 428 kts | 314° |
| 2026-05-01 12:55 | 42.55022 | 26.47302 | 35971 ft | 424 kts | 301° |
| 2026-05-01 12:55 | 42.56502 | 26.43855 | 36126 ft | 423 kts | 295° |
| 2026-05-01 12:55 | 42.57867 | 26.40312 | 36248 ft | 425 kts | 295° |
| 2026-05-01 12:56 | 42.59227 | 26.36742 | 36251 ft | 427 kts | 295° |
| 2026-05-01 12:56 | 42.61963 | 26.29631 | 36253 ft | 423 kts | 295° |
| 2026-05-01 12:57 | 42.63202 | 26.26447 | 36258 ft | 421 kts | 295° |
| 2026-05-01 12:57 | 42.67310 | 26.15957 | 36259 ft | 418 kts | 295° |
| 2026-05-01 12:58 | 42.70035 | 26.08999 | 36280 ft | 418 kts | 295° |
| 2026-05-01 12:59 | 42.74157 | 25.98443 | 36287 ft | 427 kts | 295° |
| 2026-05-01 12:59 | 42.78346 | 25.87680 | 36281 ft | 431 kts | 296° |
| 2026-05-01 13:00 | 42.82551 | 25.76832 | 36288 ft | 432 kts | 296° |
| 2026-05-01 13:01 | 42.86746 | 25.65970 | 36300 ft | 431 kts | 296° |
| 2026-05-01 13:02 | 42.90910 | 25.55145 | 36305 ft | 429 kts | 296° |
| 2026-05-01 13:07 | 43.14767 | 24.91725 | 36329 ft | 426 kts | 291° |
| 2026-05-01 13:08 | 43.17050 | 24.84285 | 36329 ft | 427 kts | 291° |
| 2026-05-01 13:08 | 43.19364 | 24.76776 | 36318 ft | 429 kts | 291° |
| 2026-05-01 13:09 | 43.21717 | 24.69253 | 36330 ft | 429 kts | 292° |
| 2026-05-01 13:09 | 43.23820 | 24.61586 | 36321 ft | 430 kts | 289° |
| 2026-05-01 13:10 | 43.26204 | 24.54051 | 36338 ft | 431 kts | 293° |
| 2026-05-01 13:10 | 43.28727 | 24.46576 | 36331 ft | 432 kts | 293° |
| 2026-05-01 13:11 | 43.31178 | 24.39047 | 36328 ft | 433 kts | 292° |
| 2026-05-01 13:11 | 43.33573 | 24.31474 | 36345 ft | 432 kts | 291° |
| 2026-05-01 13:11 | 43.34580 | 24.27538 | 35910 ft | 444 kts | 282° |
| 2026-05-01 13:12 | 43.34851 | 24.23259 | 35201 ft | 460 kts | 273° |
| 2026-05-01 13:12 | 43.35762 | 24.20179 | 27068 ft | 248 kts | 328° |
| 2026-05-01 13:12 | 43.36537 | 24.17857 | 11271 ft | 325 kts | 281° |
| 2026-05-01 13:12 | 43.37109 | 24.14867 | 537 ft | 126 kts | 248° |
| 2026-05-01 13:13 | 43.37066 | 24.13705 | 283 ft | 79 kts | 277° |
| 2026-05-01 13:13 | 43.37075 | 24.13575 | 280 ft | 0 kts | 299° |
| 2026-05-01 13:15 | 43.37075 | 24.13574 | 283 ft | 0 kts | 298° |
| 2026-05-01 13:16 | 43.37076 | 24.13572 | 285 ft | 1 kts | 297° |
| 2026-05-01 13:16 | 43.37076 | 24.13571 | 287 ft | 0 kts | 293° |